createdAt,value
2022-08-16T00:01:24.531Z,3.72
2022-08-16T00:03:54.998Z,3.80
2022-08-16T00:06:23.712Z,4.25
2022-08-16T00:08:52.636Z,4.38
2022-08-16T00:11:21.198Z,4.15
2022-08-16T00:13:53.309Z,4.03
2022-08-16T00:17:00.618Z,3.85
2022-08-16T00:19:14.373Z,4.18
2022-08-16T00:21:43.460Z,4.18
2022-08-16T00:24:12.724Z,3.97
2022-08-16T00:26:44.219Z,4.28
2022-08-16T00:29:15.791Z,3.95
2022-08-16T00:31:59.558Z,3.80
2022-08-16T00:34:44.087Z,3.88
2022-08-16T00:37:16.983Z,4.00
2022-08-16T00:39:47.521Z,4.10
2022-08-16T00:42:30.144Z,4.50
2022-08-16T00:45:08.186Z,4.00
2022-08-16T00:47:40.165Z,4.10
2022-08-16T00:50:12.898Z,4.50
2022-08-16T00:52:50.492Z,3.90
2022-08-16T00:55:19.051Z,4.25
2022-08-16T00:57:59.051Z,4.05
2022-08-16T01:00:30.637Z,4.18
2022-08-16T01:03:01.059Z,3.63
2022-08-16T01:05:32.929Z,3.60
2022-08-16T01:08:02.548Z,3.90
2022-08-16T01:10:50.859Z,3.50
2022-08-16T01:13:22.488Z,4.10
2022-08-16T01:15:53.632Z,3.70
2022-08-16T01:18:40.315Z,3.50
2022-08-16T01:21:34.903Z,3.47
2022-08-16T01:24:52.964Z,3.50
2022-08-16T01:27:08.500Z,3.50
2022-08-16T01:29:57.789Z,3.55
2022-08-16T01:32:31.413Z,3.55
2022-08-16T01:35:02.400Z,3.85
2022-08-16T01:37:35.942Z,3.72
2022-08-16T01:40:07.510Z,3.80
2022-08-16T01:42:35.961Z,3.88
2022-08-16T01:45:04.232Z,3.88
2022-08-16T01:47:33.442Z,4.00
2022-08-16T01:50:42.373Z,4.00
2022-08-16T01:52:51.123Z,3.95
2022-08-16T01:55:22.984Z,3.83
2022-08-16T01:57:53.689Z,4.00
2022-08-16T02:00:29.400Z,4.15
2022-08-16T02:02:58.081Z,4.05
2022-08-16T02:05:30.736Z,4.55
2022-08-16T02:07:58.948Z,3.65
2022-08-16T02:10:28.985Z,4.18
2022-08-16T02:13:00.663Z,3.90
2022-08-16T02:15:35.363Z,3.95
2022-08-16T02:18:04.867Z,3.70
2022-08-16T02:20:36.627Z,4.15
2022-08-16T02:23:10.850Z,4.20
2022-08-16T02:25:51.213Z,4.30
2022-08-16T02:28:23.680Z,4.05
2022-08-16T02:30:52.767Z,4.50
2022-08-16T02:33:24.853Z,4.30
2022-08-16T02:36:14.563Z,4.55
2022-08-16T02:38:58.642Z,4.25
2022-08-16T02:41:28.295Z,4.60
2022-08-16T02:43:58.490Z,4.53
2022-08-16T02:46:29.887Z,4.75
2022-08-16T02:49:02.121Z,4.75
2022-08-16T02:51:31.372Z,4.57
2022-08-16T02:53:59.987Z,5.03
2022-08-16T02:56:32.031Z,4.57
2022-08-16T02:59:01.438Z,4.68
2022-08-16T03:01:33.642Z,4.97
2022-08-16T03:04:40.100Z,5.07
2022-08-16T03:06:56.182Z,5.22
2022-08-16T03:09:28.866Z,5.53
2022-08-16T03:12:02.634Z,5.60
2022-08-16T03:14:30.727Z,5.30
2022-08-16T03:17:00.720Z,5.13
2022-08-16T03:19:42.186Z,5.40
2022-08-16T03:22:19.113Z,5.20
2022-08-16T03:24:57.581Z,5.50
2022-08-16T03:27:30.788Z,5.40
2022-08-16T03:30:00.516Z,5.22
2022-08-16T03:32:28.516Z,6.10
2022-08-16T03:34:56.565Z,5.53
2022-08-16T03:37:24.710Z,5.82
2022-08-16T03:39:56.488Z,5.20
2022-08-16T03:42:32.186Z,5.25
2022-08-16T03:45:03.925Z,5.30
2022-08-16T03:47:34.101Z,5.38
2022-08-16T03:50:03.192Z,5.15
2022-08-16T03:52:31.623Z,4.88
2022-08-16T03:55:00.578Z,5.03
2022-08-16T03:57:36.263Z,4.90
2022-08-16T04:00:20.741Z,5.03
2022-08-16T04:03:07.501Z,4.95
2022-08-16T04:05:39.154Z,4.90
2022-08-16T04:08:22.300Z,5.05
2022-08-16T04:10:55.210Z,5.25
2022-08-16T04:13:59.062Z,4.70
2022-08-16T04:16:26.417Z,5.15
2022-08-16T04:19:02.283Z,4.72
2022-08-16T04:21:32.227Z,5.10
2022-08-16T04:24:01.028Z,5.05
2022-08-16T04:26:31.237Z,5.38
2022-08-16T04:29:21.718Z,4.90
2022-08-16T04:31:56.726Z,5.35
2022-08-16T04:34:27.897Z,4.85
2022-08-16T04:36:57.504Z,5.18
2022-08-16T04:39:44.824Z,4.75
2022-08-16T04:42:14.615Z,4.97
2022-08-16T04:44:53.390Z,5.05
2022-08-16T04:47:25.338Z,5.22
2022-08-16T04:50:00.182Z,4.70
2022-08-16T04:52:34.925Z,4.90
2022-08-16T04:55:07.388Z,5.13
2022-08-16T04:57:36.021Z,5.10
2022-08-16T05:00:31.041Z,4.90
2022-08-16T05:03:01.336Z,4.80
2022-08-16T05:05:32.907Z,4.95
2022-08-16T05:08:28.432Z,4.13
2022-08-16T05:10:58.929Z,3.78
2022-08-16T05:13:40.004Z,3.72
2022-08-16T05:16:16.590Z,3.72
2022-08-16T05:18:48.900Z,3.90
2022-08-16T05:21:17.182Z,4.00
2022-08-16T05:23:55.520Z,4.00
2022-08-16T05:26:28.115Z,4.13
2022-08-16T05:28:57.449Z,4.13
2022-08-16T05:31:29.334Z,3.90
2022-08-16T05:33:58.877Z,3.90
2022-08-16T05:36:34.266Z,3.70
2022-08-16T05:39:06.395Z,3.65
2022-08-16T05:41:44.636Z,4.03
2022-08-16T05:44:24.193Z,3.80
2022-08-16T05:47:00.384Z,3.58
2022-08-16T05:49:38.444Z,3.70
2022-08-16T05:52:11.608Z,3.65
2022-08-16T05:54:46.593Z,3.40
2022-08-16T05:57:16.306Z,3.10
2022-08-16T05:59:45.478Z,3.55
2022-08-16T06:02:15.904Z,3.40
2022-08-16T06:04:45.014Z,3.35
2022-08-16T06:07:24.565Z,3.15
2022-08-16T06:09:56.338Z,3.65
2022-08-16T06:12:26.724Z,3.15
2022-08-16T06:14:59.830Z,3.25
2022-08-16T06:17:41.676Z,3.20
2022-08-16T06:20:18.176Z,3.92
2022-08-16T06:23:02.816Z,3.80
2022-08-16T06:25:36.123Z,3.50
2022-08-16T06:28:10.182Z,3.00
2022-08-16T06:30:43.854Z,3.63
2022-08-16T06:33:19.745Z,3.85
2022-08-16T06:35:50.999Z,3.20
2022-08-16T06:38:33.846Z,3.42
2022-08-16T06:41:04.760Z,4.18
2022-08-16T06:43:34.755Z,3.70
2022-08-16T06:46:04.961Z,3.42
2022-08-16T06:48:34.631Z,3.30
2022-08-16T06:51:04.476Z,3.60
2022-08-16T06:53:35.599Z,3.65
2022-08-16T06:56:14.537Z,3.78
2022-08-16T06:58:51.780Z,3.50
2022-08-16T07:01:25.164Z,3.20
2022-08-16T07:04:11.003Z,3.60
2022-08-16T07:06:43.099Z,3.30
2022-08-16T07:09:12.370Z,3.50
2022-08-16T07:11:46.086Z,4.05
2022-08-16T07:14:25.901Z,3.60
2022-08-16T07:16:58.148Z,3.40
2022-08-16T07:20:02.095Z,3.80
2022-08-16T07:22:37.014Z,3.47
2022-08-16T07:25:11.761Z,3.85
2022-08-16T07:27:40.458Z,3.40
2022-08-16T07:30:39.030Z,3.60
2022-08-16T07:33:01.083Z,3.33
2022-08-16T07:35:30.948Z,4.03
2022-08-16T07:37:59.999Z,3.45
2022-08-16T07:40:49.517Z,3.38
2022-08-16T07:43:16.347Z,4.03
2022-08-16T07:45:47.216Z,3.95
2022-08-16T07:48:22.228Z,3.75
2022-08-16T07:50:55.837Z,3.60
2022-08-16T07:53:29.069Z,3.80
2022-08-16T07:55:57.711Z,3.80
2022-08-16T07:58:35.127Z,4.18
2022-08-16T08:01:10.729Z,4.05
2022-08-16T08:03:48.476Z,4.00
2022-08-16T08:06:20.241Z,4.20
2022-08-16T08:08:50.340Z,3.95
2022-08-16T08:11:23.481Z,4.38
2022-08-16T08:13:53.845Z,4.35
2022-08-16T08:16:30.481Z,4.35
2022-08-16T08:19:02.250Z,4.50
2022-08-16T08:21:58.154Z,4.65
2022-08-16T08:24:31.589Z,4.78
2022-08-16T08:27:01.067Z,4.10
2022-08-16T08:29:37.233Z,4.50
2022-08-16T08:32:57.345Z,4.90
2022-08-16T08:34:56.214Z,4.45
2022-08-16T08:37:54.366Z,4.80
2022-08-16T08:40:24.287Z,4.70
2022-08-16T08:42:57.742Z,4.43
2022-08-16T08:45:47.393Z,4.78
2022-08-16T08:48:34.424Z,4.38
2022-08-16T08:51:04.579Z,4.20
2022-08-16T08:53:34.654Z,4.65
2022-08-16T08:56:22.433Z,4.38
2022-08-16T08:58:55.017Z,4.40
2022-08-16T09:01:36.279Z,4.18
2022-08-16T09:04:05.895Z,4.40
2022-08-16T09:06:34.861Z,4.40
2022-08-16T09:09:06.036Z,4.30
2022-08-16T09:11:40.728Z,4.15
2022-08-16T09:14:23.997Z,4.18
2022-08-16T09:17:02.954Z,4.10
2022-08-16T09:19:34.269Z,4.35
2022-08-16T09:22:03.294Z,4.43
2022-08-16T09:24:51.687Z,4.40
2022-08-16T09:27:21.524Z,3.90
2022-08-16T09:29:59.754Z,4.10
2022-08-16T09:32:30.549Z,3.90
2022-08-16T09:34:59.723Z,3.85
2022-08-16T09:37:36.357Z,4.15
2022-08-16T09:40:33.134Z,4.10
2022-08-16T09:42:59.505Z,4.07
2022-08-16T09:45:30.146Z,4.20
2022-08-16T09:47:59.558Z,3.83
2022-08-16T09:50:37.092Z,4.40
2022-08-16T09:53:15.518Z,3.90
2022-08-16T09:55:50.306Z,4.53
2022-08-16T09:58:41.279Z,4.13
2022-08-16T10:01:08.604Z,4.10
2022-08-16T10:03:39.367Z,3.97
2022-08-16T10:06:33.247Z,4.13
2022-08-16T10:09:06.067Z,3.90
2022-08-16T10:11:54.386Z,4.20
2022-08-16T10:14:24.594Z,3.80
2022-08-16T10:16:59.564Z,3.65
2022-08-16T10:19:31.889Z,3.85
2022-08-16T10:22:05.048Z,3.85
2022-08-16T10:24:33.887Z,3.75
2022-08-16T10:27:25.813Z,3.85
2022-08-16T10:30:00.757Z,3.80
2022-08-16T10:32:35.260Z,3.88
2022-08-16T10:35:03.782Z,4.15
2022-08-16T10:37:36.184Z,3.80
2022-08-16T10:40:14.592Z,3.75
2022-08-16T10:42:56.559Z,3.78
2022-08-16T10:45:25.511Z,3.70
2022-08-16T10:48:02.783Z,3.58
2022-08-16T10:50:33.378Z,3.67
2022-08-16T10:53:07.555Z,3.85
2022-08-16T10:55:40.952Z,3.55
2022-08-16T10:58:17.043Z,3.60
2022-08-16T11:00:46.483Z,3.55
2022-08-16T11:06:06.706Z,3.80
2022-08-16T11:08:38.799Z,3.80
2022-08-16T11:11:18.520Z,3.60
2022-08-16T11:13:58.667Z,3.67
2022-08-16T11:19:17.588Z,4.03
2022-08-16T11:24:41.654Z,3.70
2022-08-16T11:27:20.178Z,3.40
2022-08-16T11:29:52.894Z,3.35
2022-08-16T11:32:22.669Z,3.60
2022-08-16T11:35:15.544Z,3.92
2022-08-16T11:40:38.708Z,3.42
2022-08-16T11:43:07.649Z,3.13
2022-08-16T11:45:39.437Z,3.58
2022-08-16T11:48:10.945Z,2.80
2022-08-16T11:50:39.122Z,3.60
2022-08-16T11:53:08.550Z,3.42
2022-08-16T11:55:38.502Z,3.55
2022-08-16T11:58:08.317Z,3.58
2022-08-16T12:00:51.956Z,3.60
2022-08-16T12:03:31.482Z,3.33
2022-08-16T12:06:10.591Z,3.45
2022-08-16T12:08:40.250Z,3.47
2022-08-16T12:11:09.899Z,3.30
2022-08-16T12:13:38.038Z,3.47
2022-08-16T12:16:08.157Z,3.60
2022-08-16T12:18:38.272Z,3.60
2022-08-16T12:21:09.708Z,3.45
2022-08-16T12:23:38.510Z,3.45
2022-08-16T12:26:10.329Z,3.60
2022-08-16T12:28:53.964Z,3.08
2022-08-16T12:31:26.036Z,3.05
2022-08-16T12:33:56.025Z,3.28
2022-08-16T12:36:30.014Z,3.17
2022-08-16T12:38:58.985Z,3.25
2022-08-16T12:41:27.039Z,3.00
2022-08-16T12:43:57.209Z,3.30
2022-08-16T12:46:31.155Z,3.42
2022-08-16T12:48:59.660Z,3.60
2022-08-16T12:51:33.031Z,3.10
2022-08-16T12:54:20.163Z,3.10
2022-08-16T12:56:48.179Z,3.05
2022-08-16T12:59:20.391Z,3.10
2022-08-16T13:01:58.028Z,3.25
2022-08-16T13:04:27.953Z,2.85
2022-08-16T13:09:37.887Z,2.97
2022-08-16T13:12:19.929Z,2.92
2022-08-16T13:14:50.292Z,3.10
2022-08-16T13:17:23.604Z,2.97
2022-08-16T13:20:07.061Z,3.10
2022-08-16T13:22:37.029Z,3.30
2022-08-16T13:25:07.564Z,3.13
2022-08-16T13:28:14.808Z,2.80
2022-08-16T13:30:37.162Z,3.08
2022-08-16T13:33:13.931Z,3.13
2022-08-16T13:35:46.657Z,3.05
2022-08-16T13:38:25.724Z,3.05
2022-08-16T13:40:56.721Z,3.42
2022-08-16T13:43:26.375Z,3.28
2022-08-16T13:45:55.944Z,3.38
2022-08-16T13:48:26.401Z,3.15
2022-08-16T13:51:16.844Z,3.40
2022-08-16T13:53:54.707Z,3.20
2022-08-16T13:56:29.506Z,3.00
2022-08-16T13:59:05.607Z,2.70
2022-08-16T14:01:36.531Z,3.25
2022-08-16T14:04:07.405Z,2.83
2022-08-16T14:06:36.002Z,3.10
2022-08-16T14:09:06.605Z,3.17
2022-08-16T14:11:35.466Z,3.00
2022-08-16T14:14:05.493Z,3.20
2022-08-16T14:16:34.963Z,2.75
2022-08-16T14:19:03.847Z,2.90
2022-08-16T14:21:34.881Z,3.15
2022-08-16T14:24:07.775Z,3.53
2022-08-16T14:26:41.083Z,2.88
2022-08-16T14:29:12.270Z,3.13
2022-08-16T14:31:41.000Z,3.08
2022-08-16T14:34:11.217Z,2.88
2022-08-16T14:36:41.270Z,2.78
2022-08-16T14:39:10.278Z,3.30
2022-08-16T14:41:39.613Z,3.30
2022-08-16T14:44:09.381Z,3.13
2022-08-16T14:46:37.736Z,3.25
2022-08-16T14:49:09.255Z,3.05
2022-08-16T14:51:37.520Z,3.20
2022-08-16T14:54:11.226Z,3.00
2022-08-16T14:56:43.248Z,2.97
2022-08-16T14:59:22.697Z,2.95
2022-08-16T15:01:57.369Z,3.28
2022-08-16T15:04:39.541Z,3.03
2022-08-16T15:07:11.167Z,2.67
2022-08-16T15:10:01.191Z,3.13
2022-08-16T15:12:34.161Z,3.25
2022-08-16T15:15:12.034Z,3.20
2022-08-16T15:17:42.317Z,3.10
2022-08-16T15:20:23.545Z,3.05
2022-08-16T15:22:54.986Z,2.92
2022-08-16T15:25:27.583Z,3.42
2022-08-16T15:27:58.230Z,3.60
2022-08-16T15:31:00.034Z,3.28
2022-08-16T15:33:18.445Z,3.17
2022-08-16T15:35:50.288Z,3.20
2022-08-16T15:38:55.149Z,3.10
2022-08-16T15:41:07.860Z,3.30
2022-08-16T15:43:39.768Z,3.35
2022-08-16T15:46:34.900Z,3.45
2022-08-16T15:49:12.475Z,3.15
2022-08-16T15:51:44.675Z,3.28
2022-08-16T15:54:21.314Z,3.03
2022-08-16T15:57:09.682Z,3.67
2022-08-16T15:59:48.606Z,3.30
2022-08-16T16:02:27.778Z,3.28
2022-08-16T16:05:01.921Z,3.30
2022-08-16T16:07:32.085Z,3.40
2022-08-16T16:10:02.733Z,3.20
2022-08-16T16:12:51.223Z,3.40
2022-08-16T16:15:22.911Z,3.20
2022-08-16T16:17:52.533Z,2.78
2022-08-16T16:20:22.042Z,2.95
2022-08-16T16:22:52.933Z,3.40
2022-08-16T16:25:21.567Z,3.10
2022-08-16T16:27:55.656Z,3.60
2022-08-16T16:30:32.987Z,3.08
2022-08-16T16:33:06.602Z,3.13
2022-08-16T16:35:36.271Z,3.33
2022-08-16T16:38:07.857Z,3.40
2022-08-16T16:40:46.146Z,3.50
2022-08-16T16:43:17.131Z,3.50
2022-08-16T16:45:45.618Z,3.30
2022-08-16T16:48:13.652Z,3.25
2022-08-16T16:50:46.191Z,3.22
2022-08-16T16:53:17.342Z,3.25
2022-08-16T16:55:47.658Z,3.05
2022-08-16T16:58:40.535Z,3.20
2022-08-16T17:01:12.102Z,3.40
2022-08-16T17:03:40.160Z,3.20
2022-08-16T17:06:10.331Z,3.03
2022-08-16T17:08:40.906Z,3.20
2022-08-16T17:11:09.819Z,3.47
2022-08-16T17:13:39.581Z,3.08
2022-08-16T17:16:18.980Z,3.50
2022-08-16T17:19:15.289Z,3.50
2022-08-16T17:21:39.136Z,3.53
2022-08-16T17:24:17.841Z,4.75
2022-08-16T17:26:48.718Z,5.60
2022-08-16T17:29:20.218Z,3.95
2022-08-16T17:31:49.442Z,3.55
2022-08-16T17:34:29.319Z,3.38
2022-08-16T17:36:59.713Z,3.25
2022-08-16T17:39:29.824Z,3.20
2022-08-16T17:41:58.409Z,3.47
2022-08-16T17:44:28.627Z,3.38
2022-08-16T17:46:56.673Z,3.50
2022-08-16T17:49:24.665Z,3.53
2022-08-16T17:51:52.634Z,3.17
2022-08-16T17:54:30.065Z,4.22
2022-08-16T17:57:00.532Z,3.70
2022-08-16T17:59:31.699Z,3.38
2022-08-16T18:02:41.033Z,3.25
2022-08-16T18:04:55.547Z,3.13
2022-08-16T18:07:23.637Z,3.17
2022-08-16T18:09:52.550Z,3.58
2022-08-16T18:12:51.222Z,3.20
2022-08-16T18:15:16.596Z,3.33
2022-08-16T18:17:45.019Z,3.30
2022-08-16T18:20:35.219Z,3.38
2022-08-16T18:23:04.914Z,3.55
2022-08-16T18:25:32.936Z,3.45
2022-08-16T18:28:00.947Z,3.65
2022-08-16T18:30:30.371Z,3.00
2022-08-16T18:32:58.445Z,3.78
2022-08-16T18:35:26.890Z,3.63
2022-08-16T18:37:54.955Z,3.85
2022-08-16T18:40:22.981Z,4.05
2022-08-16T18:42:56.695Z,4.00
2022-08-16T18:45:25.405Z,3.40
2022-08-16T18:48:06.049Z,3.70
2022-08-16T18:50:58.760Z,3.53
2022-08-16T18:53:23.450Z,3.80
2022-08-16T18:55:55.657Z,3.47
2022-08-16T18:58:23.732Z,3.40
2022-08-16T19:00:56.460Z,3.40
2022-08-16T19:03:28.752Z,3.72
2022-08-16T19:05:58.909Z,3.63
2022-08-16T19:08:26.961Z,3.40
2022-08-16T19:10:55.368Z,3.50
2022-08-16T19:13:25.812Z,3.80
2022-08-16T19:15:56.919Z,3.90
2022-08-16T19:18:26.971Z,3.60
2022-08-16T19:20:56.521Z,3.72
2022-08-16T19:23:26.784Z,3.40
2022-08-16T19:25:57.585Z,3.97
2022-08-16T19:28:49.073Z,4.18
2022-08-16T19:31:23.751Z,3.70
2022-08-16T19:33:56.311Z,3.95
2022-08-16T19:36:31.980Z,4.55
2022-08-16T19:39:04.755Z,3.75
2022-08-16T19:41:35.351Z,4.15
2022-08-16T19:44:03.775Z,4.18
2022-08-16T19:46:31.910Z,3.72
2022-08-16T19:49:01.530Z,3.85
2022-08-16T19:51:29.777Z,4.00
2022-08-16T19:53:57.871Z,3.90
2022-08-16T19:56:26.832Z,3.72
2022-08-16T19:59:18.801Z,3.72
2022-08-16T20:01:44.258Z,3.78
2022-08-16T20:04:13.819Z,3.95
2022-08-16T20:06:41.804Z,4.32
2022-08-16T20:09:10.910Z,4.10
2022-08-16T20:11:43.895Z,4.10
2022-08-16T20:14:24.633Z,3.60
2022-08-16T20:16:58.583Z,4.07
2022-08-16T20:19:29.528Z,4.07
2022-08-16T20:22:05.802Z,3.85
2022-08-16T20:24:35.993Z,3.83
2022-08-16T20:27:06.032Z,3.90
2022-08-16T20:29:34.190Z,3.70
2022-08-16T20:32:02.325Z,3.92
2022-08-16T20:34:31.866Z,4.03
2022-08-16T20:36:59.855Z,4.13
2022-08-16T20:39:27.897Z,3.58
2022-08-16T20:41:55.926Z,3.90
2022-08-16T20:44:25.156Z,3.78
2022-08-16T20:46:53.542Z,4.00
2022-08-16T20:49:22.233Z,3.72
2022-08-16T20:51:55.945Z,4.28
2022-08-16T20:54:27.157Z,3.65
2022-08-16T20:56:55.163Z,3.88
2022-08-16T20:59:23.248Z,3.88
2022-08-16T21:01:51.302Z,3.70
2022-08-16T21:04:20.276Z,4.07
2022-08-16T21:06:53.611Z,4.70
2022-08-16T21:09:25.088Z,4.53
2022-08-16T21:11:55.416Z,4.30
2022-08-16T21:14:23.589Z,4.10
2022-08-16T21:16:51.864Z,3.60
2022-08-16T21:19:20.652Z,3.85
2022-08-16T21:21:49.365Z,3.90
2022-08-16T21:24:17.835Z,4.05
2022-08-16T21:26:55.685Z,4.10
2022-08-16T21:29:32.696Z,3.97
2022-08-16T21:32:13.717Z,4.15
2022-08-16T21:34:42.885Z,4.05
2022-08-16T21:37:11.251Z,3.88
2022-08-16T21:39:39.957Z,3.92
2022-08-16T21:42:14.818Z,4.05
2022-08-16T21:44:42.966Z,4.03
2022-08-16T21:47:11.126Z,4.40
2022-08-16T21:49:39.609Z,3.95
2022-08-16T21:52:09.147Z,4.20
2022-08-16T21:54:37.829Z,4.40
2022-08-16T21:57:10.627Z,4.30
2022-08-16T21:59:40.285Z,4.45
2022-08-16T22:02:08.318Z,4.00
2022-08-16T22:04:39.007Z,4.03
2022-08-16T22:07:07.750Z,4.20
2022-08-16T22:09:36.108Z,4.13
2022-08-16T22:12:04.280Z,4.30
2022-08-16T22:14:32.760Z,4.00
2022-08-16T22:17:02.395Z,3.75
2022-08-16T22:19:31.027Z,4.05
2022-08-16T22:22:01.494Z,4.10
2022-08-16T22:24:29.678Z,4.10
2022-08-16T22:26:57.695Z,3.88
2022-08-16T22:29:25.855Z,4.32
2022-08-16T22:31:53.854Z,3.90
2022-08-16T22:34:23.707Z,4.00
2022-08-16T22:36:51.670Z,3.88
2022-08-16T22:39:19.646Z,3.95
2022-08-16T22:41:49.736Z,3.95
2022-08-16T22:44:18.792Z,4.05
2022-08-16T22:46:46.992Z,3.65
2022-08-16T22:49:15.055Z,4.20
2022-08-16T22:51:44.408Z,3.88
2022-08-16T22:54:33.973Z,3.33
2022-08-16T22:57:00.406Z,3.80
2022-08-16T22:59:30.420Z,3.63
2022-08-16T23:01:58.632Z,3.70
2022-08-16T23:04:26.886Z,3.50
2022-08-16T23:06:56.243Z,3.70
2022-08-16T23:09:24.557Z,3.50
2022-08-16T23:11:52.859Z,3.25
2022-08-16T23:14:20.879Z,3.30
2022-08-16T23:16:48.891Z,3.80
2022-08-16T23:19:17.432Z,3.55
2022-08-16T23:21:49.177Z,3.30
2022-08-16T23:24:20.328Z,3.40
2022-08-16T23:26:49.472Z,3.47
2022-08-16T23:29:24.936Z,3.30
2022-08-16T23:31:59.185Z,3.35
2022-08-16T23:34:29.113Z,3.35
2022-08-16T23:36:57.111Z,3.40
2022-08-16T23:39:26.966Z,3.50
2022-08-16T23:41:55.561Z,3.10
2022-08-16T23:44:57.308Z,3.05
2022-08-16T23:47:11.894Z,3.45
2022-08-16T23:49:59.557Z,3.20
2022-08-16T23:52:39.310Z,3.47
2022-08-16T23:55:17.566Z,3.40
2022-08-16T23:57:45.974Z,3.80
